createdAt,value
2018-07-15T00:00:21.641Z,18.30
2018-07-15T00:04:24.821Z,18.20
2018-07-15T00:08:28.053Z,18.00
2018-07-15T00:12:31.276Z,17.80
2018-07-15T00:16:34.501Z,17.50
2018-07-15T00:20:38.045Z,17.40
2018-07-15T00:24:41.286Z,17.40
2018-07-15T00:32:47.485Z,16.70
2018-07-15T00:36:50.737Z,16.50
2018-07-15T00:40:53.968Z,16.10
2018-07-15T00:44:57.212Z,16.00
2018-07-15T00:53:03.431Z,15.90
2018-07-15T00:57:06.733Z,15.80
2018-07-15T01:01:09.969Z,15.80
2018-07-15T01:05:13.185Z,15.70
2018-07-15T01:09:16.423Z,15.80
2018-07-15T01:17:22.670Z,15.80
2018-07-15T01:21:25.985Z,15.70
2018-07-15T01:25:29.205Z,15.60
2018-07-15T01:29:32.444Z,15.70
2018-07-15T01:37:38.629Z,15.60
2018-07-15T01:41:41.902Z,15.50
2018-07-15T01:45:45.116Z,15.40
2018-07-15T01:49:48.350Z,15.30
2018-07-15T01:57:54.528Z,15.20
2018-07-15T02:01:57.767Z,15.00
2018-07-15T02:06:00.999Z,14.80
2018-07-15T02:10:04.266Z,14.60
2018-07-15T02:14:07.506Z,14.50
2018-07-15T02:18:10.951Z,14.50
2018-07-15T02:22:14.174Z,14.40
2018-07-15T02:26:17.422Z,14.30
2018-07-15T02:30:20.642Z,14.50
2018-07-15T02:34:23.877Z,14.30
2018-07-15T02:38:27.119Z,14.20
2018-07-15T02:42:30.381Z,14.10
2018-07-15T02:46:33.621Z,14.10
2018-07-15T02:50:36.869Z,14.00
2018-07-15T02:54:40.178Z,14.00
2018-07-15T02:58:43.397Z,13.90
2018-07-15T03:02:46.630Z,14.00
2018-07-15T03:10:52.872Z,14.00
2018-07-15T03:14:56.405Z,13.90
2018-07-15T03:18:59.654Z,13.70
2018-07-15T03:27:05.857Z,13.70
2018-07-15T03:35:12.806Z,13.70
2018-07-15T03:39:16.026Z,13.80
2018-07-15T03:43:19.250Z,13.80
2018-07-15T03:47:22.490Z,13.70
2018-07-15T03:55:28.704Z,13.70
2018-07-15T03:59:31.933Z,13.70
2018-07-15T04:03:35.163Z,13.60
2018-07-15T04:07:38.380Z,13.70
2018-07-15T04:11:41.664Z,13.70
2018-07-15T04:15:44.915Z,13.80
2018-07-15T04:19:48.121Z,13.90
2018-07-15T04:23:51.332Z,14.00
2018-07-15T04:27:54.567Z,13.90
2018-07-15T04:31:57.900Z,14.00
2018-07-15T04:36:01.109Z,14.00
2018-07-15T04:40:04.340Z,14.20
2018-07-15T04:44:08.109Z,14.30
2018-07-15T04:48:11.324Z,14.40
2018-07-15T04:52:14.594Z,14.60
2018-07-15T04:56:17.826Z,14.80
2018-07-15T05:00:21.041Z,15.10
2018-07-15T05:04:24.261Z,15.40
2018-07-15T05:12:30.461Z,15.80
2018-07-15T05:16:33.684Z,16.00
2018-07-15T05:20:36.908Z,16.20
2018-07-15T05:24:40.237Z,16.30
2018-07-15T05:28:43.473Z,16.50
2018-07-15T05:32:46.708Z,16.60
2018-07-15T05:36:49.944Z,16.80
2018-07-15T05:40:53.163Z,16.90
2018-07-15T05:44:56.380Z,16.90
2018-07-15T05:48:59.622Z,17.10
2018-07-15T05:53:02.876Z,17.20
2018-07-15T05:57:06.124Z,17.40
2018-07-15T06:05:12.307Z,17.70
2018-07-15T06:09:15.545Z,17.80
2018-07-15T06:13:18.785Z,18.00
2018-07-15T06:17:22.025Z,18.20
2018-07-15T06:25:28.237Z,18.70
2018-07-15T06:33:34.443Z,19.00
2018-07-15T06:41:40.685Z,19.30
2018-07-15T06:45:43.933Z,19.50
2018-07-15T06:49:47.148Z,19.60
2018-07-15T06:53:50.391Z,19.80
2018-07-15T06:57:53.626Z,20.00
2018-07-15T07:01:56.873Z,20.20
2018-07-15T07:06:00.106Z,20.50
2018-07-15T07:10:03.375Z,20.50
2018-07-15T07:14:07.127Z,20.70
2018-07-15T07:18:10.348Z,20.90
2018-07-15T07:22:14.603Z,21.00
2018-07-15T07:26:17.938Z,21.20
2018-07-15T07:30:21.188Z,21.40
2018-07-15T07:34:24.459Z,21.50
2018-07-15T07:38:27.681Z,21.70
2018-07-15T07:42:30.920Z,21.90
2018-07-15T07:46:34.173Z,22.00
2018-07-15T07:50:37.445Z,22.10
2018-07-15T07:54:40.703Z,22.20
2018-07-15T07:58:43.929Z,22.20
2018-07-15T08:02:47.181Z,22.40
2018-07-15T08:06:50.430Z,22.60
2018-07-15T08:10:53.668Z,22.60
2018-07-15T08:14:56.894Z,22.90
2018-07-15T08:23:03.133Z,23.50
2018-07-15T08:27:06.512Z,23.60
2018-07-15T08:31:12.840Z,23.70
2018-07-15T08:35:16.085Z,23.80
2018-07-15T08:39:19.351Z,23.90
2018-07-15T08:43:22.615Z,24.00
2018-07-15T08:47:25.842Z,24.40
2018-07-15T08:51:29.121Z,24.50
2018-07-15T08:55:32.421Z,24.70
2018-07-15T08:59:35.662Z,24.80
2018-07-15T09:03:38.881Z,24.70
2018-07-15T09:07:42.122Z,25.00
2018-07-15T09:15:48.392Z,25.30
2018-07-15T09:19:51.612Z,25.60
2018-07-15T09:23:54.939Z,25.20
2018-07-15T09:27:58.363Z,25.80
2018-07-15T09:32:01.548Z,26.40
2018-07-15T09:36:05.641Z,26.70
2018-07-15T09:40:08.849Z,27.00
2018-07-15T09:44:12.077Z,27.60
2018-07-15T09:48:15.433Z,27.80
2018-07-15T09:52:18.657Z,28.20
2018-07-15T09:56:21.914Z,28.70
2018-07-15T10:00:30.620Z,30.10
2018-07-15T10:04:33.834Z,30.50
2018-07-15T10:08:37.060Z,30.20
2018-07-15T10:12:40.282Z,30.40
2018-07-15T10:16:43.533Z,29.80
2018-07-15T10:28:52.800Z,28.00
2018-07-15T10:32:56.057Z,27.60
2018-07-15T10:36:59.330Z,27.60
2018-07-15T10:41:02.682Z,28.30
2018-07-15T10:45:05.922Z,28.10
2018-07-15T10:49:09.141Z,27.80
2018-07-15T10:53:12.382Z,28.80
2018-07-15T10:57:15.616Z,30.50
2018-07-15T11:01:18.840Z,32.40
2018-07-15T11:05:22.092Z,32.60
2018-07-15T11:09:42.041Z,31.30
2018-07-15T11:13:51.066Z,33.10
2018-07-15T11:18:04.933Z,32.90
2018-07-15T11:22:08.208Z,31.90
2018-07-15T11:26:11.451Z,32.50
2018-07-15T11:30:14.690Z,33.60
2018-07-15T11:34:17.921Z,36.00
2018-07-15T11:38:21.148Z,33.40
2018-07-15T11:42:24.400Z,34.20
2018-07-15T11:54:33.865Z,36.60
2018-07-15T11:58:37.060Z,35.80
2018-07-15T12:02:40.279Z,35.70
2018-07-15T12:06:43.654Z,36.30
2018-07-15T12:10:46.939Z,34.20
2018-07-15T12:14:50.168Z,34.40
2018-07-15T12:18:53.437Z,36.50
2018-07-15T12:22:56.714Z,35.10
2018-07-15T12:27:00.029Z,33.30
2018-07-15T12:31:03.257Z,34.60
2018-07-15T12:35:06.485Z,35.60
2018-07-15T12:39:10.034Z,35.80
2018-07-15T12:43:13.273Z,36.20
2018-07-15T12:47:16.617Z,37.60
2018-07-15T12:51:19.849Z,36.20
2018-07-15T12:55:23.088Z,33.20
2018-07-15T12:59:26.329Z,33.80
2018-07-15T13:03:29.570Z,35.90
2018-07-15T13:07:32.804Z,35.60
2018-07-15T13:15:39.060Z,34.00
2018-07-15T13:19:42.379Z,35.00
2018-07-15T13:23:47.750Z,36.20
2018-07-15T13:27:51.022Z,37.40
2018-07-15T13:31:54.319Z,37.70
2018-07-15T13:35:57.681Z,36.50
2018-07-15T13:44:03.912Z,34.70
2018-07-15T13:48:07.178Z,34.60
2018-07-15T13:56:13.381Z,37.10
2018-07-15T14:04:19.724Z,33.80
2018-07-15T14:08:22.956Z,35.40
2018-07-15T14:12:26.197Z,36.90
2018-07-15T14:20:32.392Z,36.40
2018-07-15T14:28:38.581Z,36.50
2018-07-15T14:32:41.822Z,35.50
2018-07-15T14:36:45.038Z,36.60
2018-07-15T14:40:48.276Z,37.00
2018-07-15T14:44:51.518Z,36.00
2018-07-15T14:52:58.008Z,34.80
2018-07-15T14:57:01.238Z,34.50
2018-07-15T15:01:04.476Z,34.00
2018-07-15T15:05:07.904Z,34.10
2018-07-15T15:09:17.810Z,33.30
2018-07-15T15:13:21.092Z,34.20
2018-07-15T15:17:24.272Z,34.10
2018-07-15T15:21:27.509Z,33.20
2018-07-15T15:25:30.745Z,33.90
2018-07-15T15:29:33.964Z,34.60
2018-07-15T15:33:37.215Z,32.30
2018-07-15T15:37:40.439Z,33.70
2018-07-15T15:45:46.651Z,33.70
2018-07-15T15:49:49.902Z,33.60
2018-07-15T15:53:53.185Z,33.10
2018-07-15T15:57:56.408Z,33.00
2018-07-15T16:01:59.682Z,33.00
2018-07-15T16:06:02.931Z,35.00
2018-07-15T16:10:06.759Z,33.40
2018-07-15T16:14:10.000Z,32.80
2018-07-15T16:18:13.224Z,32.70
2018-07-15T16:22:16.515Z,32.60
2018-07-15T16:26:19.775Z,32.60
2018-07-15T16:30:23.010Z,32.10
2018-07-15T16:34:26.240Z,32.50
2018-07-15T16:38:29.461Z,33.20
2018-07-15T16:42:32.696Z,33.20
2018-07-15T16:46:35.932Z,33.90
2018-07-15T16:50:39.173Z,33.70
2018-07-15T16:54:42.400Z,33.50
2018-07-15T16:58:45.632Z,32.30
2018-07-15T17:02:48.856Z,32.80
2018-07-15T17:06:52.098Z,32.90
2018-07-15T17:10:55.332Z,32.70
2018-07-15T17:19:01.509Z,31.70
2018-07-15T17:23:04.804Z,31.80
2018-07-15T17:27:08.092Z,31.70
2018-07-15T17:31:11.336Z,32.80
2018-07-15T17:35:14.580Z,32.70
2018-07-15T17:39:17.871Z,32.70
2018-07-15T17:43:21.115Z,33.30
2018-07-15T17:47:24.349Z,33.60
2018-07-15T17:51:27.623Z,33.30
2018-07-15T17:55:30.869Z,33.50
2018-07-15T17:59:34.097Z,33.80
2018-07-15T18:03:37.333Z,33.80
2018-07-15T18:07:40.565Z,34.30
2018-07-15T18:11:43.828Z,34.30
2018-07-15T18:15:47.157Z,34.60
2018-07-15T18:19:50.384Z,34.50
2018-07-15T18:23:53.617Z,34.20
2018-07-15T18:32:01.200Z,32.40
2018-07-15T18:36:04.755Z,32.40
2018-07-15T18:40:08.033Z,32.30
2018-07-15T18:44:11.280Z,31.30
2018-07-15T18:48:14.508Z,31.90
2018-07-15T18:52:17.741Z,31.20
2018-07-15T18:56:20.989Z,30.50
2018-07-15T19:00:24.297Z,29.20
2018-07-15T19:04:27.521Z,28.20
2018-07-15T19:08:30.760Z,27.50
2018-07-15T19:12:34.006Z,27.10
2018-07-15T19:20:40.313Z,26.20
2018-07-15T19:28:46.653Z,25.60
2018-07-15T19:32:49.873Z,25.40
2018-07-15T19:36:53.108Z,25.10
2018-07-15T19:40:56.328Z,24.90
2018-07-15T19:44:59.540Z,24.80
2018-07-15T19:49:02.786Z,24.50
2018-07-15T19:53:06.025Z,24.40
2018-07-15T19:57:09.243Z,24.20
2018-07-15T20:01:12.487Z,23.90
2018-07-15T20:05:15.705Z,23.70
2018-07-15T20:09:18.942Z,23.60
2018-07-15T20:13:22.162Z,23.50
2018-07-15T20:17:25.917Z,23.30
2018-07-15T20:21:29.163Z,23.10
2018-07-15T20:25:32.864Z,22.90
2018-07-15T20:29:36.098Z,22.80
2018-07-15T20:41:46.169Z,22.50
2018-07-15T20:45:49.380Z,22.40
2018-07-15T20:49:52.596Z,22.20
2018-07-15T20:53:55.948Z,22.00
2018-07-15T20:57:59.222Z,21.90
2018-07-15T21:02:05.403Z,21.80
2018-07-15T21:06:08.785Z,21.60
2018-07-15T21:10:12.100Z,21.50
2018-07-15T21:14:16.195Z,21.30
2018-07-15T21:18:20.732Z,21.20
2018-07-15T21:22:24.234Z,21.10
2018-07-15T21:26:27.537Z,21.10
2018-07-15T21:30:32.927Z,21.00
2018-07-15T21:34:36.613Z,20.80
2018-07-15T21:38:40.594Z,20.70
2018-07-15T21:42:48.526Z,20.60
2018-07-15T21:50:56.552Z,20.60
2018-07-15T21:59:04.197Z,20.50
2018-07-15T22:03:07.460Z,20.50
2018-07-15T22:07:22.122Z,20.30
2018-07-15T22:11:25.354Z,20.20
2018-07-15T22:19:31.553Z,20.10
2018-07-15T22:23:34.803Z,20.10
2018-07-15T22:27:38.111Z,20.10
2018-07-15T22:31:41.335Z,20.00
2018-07-15T22:35:44.552Z,19.80
2018-07-15T22:39:47.771Z,19.80
2018-07-15T22:43:51.012Z,19.80
2018-07-15T22:47:54.248Z,19.80
2018-07-15T22:51:57.479Z,19.80
2018-07-15T22:56:00.697Z,19.70
2018-07-15T23:04:07.479Z,19.70
2018-07-15T23:08:10.993Z,19.70
2018-07-15T23:12:14.225Z,19.70
2018-07-15T23:20:20.400Z,19.70
2018-07-15T23:24:23.657Z,19.60
2018-07-15T23:28:26.873Z,19.60
2018-07-15T23:32:30.105Z,19.70
2018-07-15T23:36:33.329Z,19.60
2018-07-15T23:40:36.570Z,19.60
2018-07-15T23:44:39.785Z,19.40
2018-07-15T23:48:43.005Z,19.20
2018-07-15T23:52:46.220Z,18.90
2018-07-15T23:56:49.440Z,18.30
